Andalusia, IL

4:06 AM CST on November 28, 2014 (GMT -0600)
West Central Davenport | Change Station
CLOSE
Current Station
Personal Weather Station
Location: Davenport, IA
Elevation: 704 ft
Nearby Weather Stations

Elev 704 ft 41.53 °N, 90.61 °W | Updated 26 seconds ago

Overcast
Overcast
14.7 °F
Feels Like 15 °F
N
0.0
Wind Variable Wind from East
Gusts 0.0 mph

Today
High -- | Low -- °F
--% Chance of Precip.
Yesterday
High -- | Low -- °F
Precip. -- in
7:06 AM 4:35 PM
Waxing Crescent, 39% visible
Pressure 30.31 in
Visibility 10.0 miles
Clouds Few 7500 ft
Overcast 10000 ft
Windchill 15 °F
Dew Point 1 °F
Humidity 54%
Rainfall 0.00 in
Snow Depth Not available.
UV 0 out of 12
Pollen .10 out of 12
Air Quality Not available.
Flu Activity Not available.
METAR KMLI 280952Z AUTO 11008KT 10SM FEW075 OVC100 M08/M12 A3028 RMK AO2 SLP262 T10831122 $

More Conditions Fewer Conditions

Pressure 30.31 in
Visibility 10.0 miles
Clouds Few 7500 ft
Overcast 10000 ft
Windchill 15 °F
Dew Point 1 °F
Humidity 54%
Rainfall 0.00 in
Snow Depth Not available.
UV 0 out of 12
Pollen .10 out of 12
Air Quality Not available.
Flu Activity Not available.
METAR KMLI 280952Z AUTO 11008KT 10SM FEW075 OVC100 M08/M12 A3028 RMK AO2 SLP262 T10831122 $

More Conditions Fewer Conditions

10-Day Weather Forecast

Almanac

Astronomy

Nov. 28, 2014 Rise Set
Actual Time
Civil Twilight
Nautical Twilight
Astronomical Twilight
Moon
Length of Visible Light
Length of Day
Tomorrow will be .
, % of the Moon is Illuminated

Today's Extremes

State Highs State Lows

Community

WunderPhotos

Upload Photos

1,774,192 photos uploaded!

WunderBlogs® & News

Nearby

Air Quality

  Air Quality AQ Index Pollutant
Not available.

Snow Depth

Station Depth Elevation

Earthquake Activity

City Distance Mag. Time & Date
Minimum magnitude displayed is 2.5.

Coastal Water Temperatures

Place Temperature

Nearby Weather Stations